sensor_id;sensor_type;location;lat;lon;timestamp;pressure;altitude;pressure_sealevel;temperature;humidity
41383;BME280;27971;53.902;9.118;2022-12-07T00:05:36;101231.0;;;15.87;27.17
41383;BME280;27971;53.902;9.118;2022-12-07T00:07:40;101227.0;;;16.25;26.24
41383;BME280;27971;53.902;9.118;2022-12-07T00:09:43;101222.0;;;16.65;25.49
41383;BME280;27971;53.902;9.118;2022-12-07T00:11:49;101224.0;;;16.84;25.11
41383;BME280;27971;53.902;9.118;2022-12-07T00:13:52;101225.0;;;17.69;24.69
41383;BME280;27971;53.902;9.118;2022-12-07T00:15:52;101222.0;;;17.6;24.7
41383;BME280;27971;53.902;9.118;2022-12-07T00:17:55;101221.0;;;17.72;24.58
41383;BME280;27971;53.902;9.118;2022-12-07T00:19:57;101224.0;;;17.8;24.48
41383;BME280;27971;53.902;9.118;2022-12-07T00:22:00;101222.0;;;18.31;24.38
41383;BME280;27971;53.902;9.118;2022-12-07T00:24:04;101221.0;;;17.73;24.59
41383;BME280;27971;53.902;9.118;2022-12-07T00:26:07;101220.0;;;17.62;24.8
41383;BME280;27971;53.902;9.118;2022-12-07T00:28:09;101215.0;;;17.55;24.76
41383;BME280;27971;53.902;9.118;2022-12-07T00:30:11;101213.0;;;17.43;24.79
41383;BME280;27971;53.902;9.118;2022-12-07T00:32:14;101214.0;;;17.63;24.64
41383;BME280;27971;53.902;9.118;2022-12-07T00:34:18;101216.0;;;17.79;24.48
41383;BME280;27971;53.902;9.118;2022-12-07T00:36:21;101217.0;;;17.73;24.68
41383;BME280;27971;53.902;9.118;2022-12-07T00:38:23;101218.0;;;17.66;24.78
41383;BME280;27971;53.902;9.118;2022-12-07T00:40:25;101217.0;;;17.94;24.5
41383;BME280;27971;53.902;9.118;2022-12-07T00:42:28;101213.0;;;17.41;24.85
41383;BME280;27971;53.902;9.118;2022-12-07T00:44:30;101212.0;;;17.37;24.87
41383;BME280;27971;53.902;9.118;2022-12-07T00:46:33;101214.0;;;17.62;24.58
41383;BME280;27971;53.902;9.118;2022-12-07T00:48:35;101214.0;;;17.74;24.51
41383;BME280;27971;53.902;9.118;2022-12-07T00:50:39;101213.0;;;17.8;24.5
41383;BME280;27971;53.902;9.118;2022-12-07T00:52:42;101214.0;;;17.25;24.88
41383;BME280;27971;53.902;9.118;2022-12-07T00:54:45;101211.0;;;17.54;24.65
41383;BME280;27971;53.902;9.118;2022-12-07T00:56:47;101208.0;;;17.61;24.57
41383;BME280;27971;53.902;9.118;2022-12-07T00:58:51;101207.0;;;17.55;24.7
41383;BME280;27971;53.902;9.118;2022-12-07T01:00:53;101207.0;;;17.39;24.73
41383;BME280;27971;53.902;9.118;2022-12-07T01:02:55;101208.0;;;17.63;24.72
41383;BME280;27971;53.902;9.118;2022-12-07T01:04:58;101206.0;;;17.56;24.61
41383;BME280;27971;53.902;9.118;2022-12-07T01:07:00;101207.0;;;17.48;24.63
41383;BME280;27971;53.902;9.118;2022-12-07T01:09:03;101210.0;;;17.58;24.51
41383;BME280;27971;53.902;9.118;2022-12-07T01:11:07;101211.0;;;17.53;24.54
41383;BME280;27971;53.902;9.118;2022-12-07T01:13:08;101212.0;;;17.62;24.56
41383;BME280;27971;53.902;9.118;2022-12-07T01:15:11;101213.0;;;17.64;24.53
41383;BME280;27971;53.902;9.118;2022-12-07T01:17:14;101214.0;;;17.77;24.42
41383;BME280;27971;53.902;9.118;2022-12-07T01:19:17;101211.0;;;17.74;24.42
41383;BME280;27971;53.902;9.118;2022-12-07T01:21:21;101213.0;;;17.65;24.5
41383;BME280;27971;53.902;9.118;2022-12-07T01:23:22;101217.0;;;17.78;24.48
41383;BME280;27971;53.902;9.118;2022-12-07T01:25:25;101219.0;;;17.49;24.67
41383;BME280;27971;53.902;9.118;2022-12-07T01:27:29;101220.0;;;17.45;24.71
41383;BME280;27971;53.902;9.118;2022-12-07T01:29:31;101219.0;;;17.39;24.71
41383;BME280;27971;53.902;9.118;2022-12-07T01:31:34;101220.0;;;17.51;24.69
41383;BME280;27971;53.902;9.118;2022-12-07T01:33:37;101220.0;;;17.42;24.7
41383;BME280;27971;53.902;9.118;2022-12-07T01:35:40;101220.0;;;17.55;24.6
41383;BME280;27971;53.902;9.118;2022-12-07T01:37:43;101216.0;;;17.61;24.66
41383;BME280;27971;53.902;9.118;2022-12-07T01:39:48;101214.0;;;17.59;24.66
41383;BME280;27971;53.902;9.118;2022-12-07T01:41:50;101212.0;;;17.35;24.76
41383;BME280;27971;53.902;9.118;2022-12-07T01:44:25;101214.0;;;17.6;24.54
41383;BME280;27971;53.902;9.118;2022-12-07T01:45:55;101215.0;;;18.19;24.51
41383;BME280;27971;53.902;9.118;2022-12-07T01:47:57;101213.0;;;17.55;24.77
41383;BME280;27971;53.902;9.118;2022-12-07T01:50:01;101215.0;;;17.48;24.68
41383;BME280;27971;53.902;9.118;2022-12-07T01:52:13;101218.0;;;17.51;24.76
41383;BME280;27971;53.902;9.118;2022-12-07T01:54:06;101218.0;;;17.56;24.63
41383;BME280;27971;53.902;9.118;2022-12-07T01:56:11;101218.0;;;17.72;24.65
41383;BME280;27971;53.902;9.118;2022-12-07T01:58:12;101220.0;;;17.71;24.67
41383;BME280;27971;53.902;9.118;2022-12-07T02:00:14;101222.0;;;17.92;24.45
41383;BME280;27971;53.902;9.118;2022-12-07T02:02:19;101220.0;;;17.59;24.63
41383;BME280;27971;53.902;9.118;2022-12-07T02:04:18;101221.0;;;17.69;24.53
41383;BME280;27971;53.902;9.118;2022-12-07T02:06:25;101222.0;;;17.56;24.57
41383;BME280;27971;53.902;9.118;2022-12-07T02:08:25;101223.0;;;17.71;24.58
41383;BME280;27971;53.902;9.118;2022-12-07T02:10:30;101223.0;;;17.59;24.68
41383;BME280;27971;53.902;9.118;2022-12-07T02:12:31;101225.0;;;17.62;24.72
41383;BME280;27971;53.902;9.118;2022-12-07T02:14:34;101224.0;;;17.39;24.75
41383;BME280;27971;53.902;9.118;2022-12-07T02:16:45;101226.0;;;17.63;24.52
41383;BME280;27971;53.902;9.118;2022-12-07T02:18:49;101224.0;;;17.81;24.5
41383;BME280;27971;53.902;9.118;2022-12-07T02:20:47;101223.0;;;17.7;24.66
41383;BME280;27971;53.902;9.118;2022-12-07T02:22:59;101223.0;;;17.32;24.82
41383;BME280;27971;53.902;9.118;2022-12-07T02:24:53;101220.0;;;17.79;24.68
41383;BME280;27971;53.902;9.118;2022-12-07T02:27:28;101217.0;;;17.61;24.63
41383;BME280;27971;53.902;9.118;2022-12-07T02:29:09;101216.0;;;17.33;24.78
41383;BME280;27971;53.902;9.118;2022-12-07T02:30:58;101217.0;;;17.38;24.77
41383;BME280;27971;53.902;9.118;2022-12-07T02:33:03;101217.0;;;17.34;24.74
41383;BME280;27971;53.902;9.118;2022-12-07T02:35:06;101218.0;;;17.53;24.61
41383;BME280;27971;53.902;9.118;2022-12-07T02:37:12;101219.0;;;17.7;24.6
41383;BME280;27971;53.902;9.118;2022-12-07T02:39:14;101220.0;;;17.75;24.45
41383;BME280;27971;53.902;9.118;2022-12-07T02:41:15;101221.0;;;17.69;24.63
41383;BME280;27971;53.902;9.118;2022-12-07T02:43:19;101222.0;;;17.54;24.72
41383;BME280;27971;53.902;9.118;2022-12-07T02:45:20;101223.0;;;17.52;24.64
41383;BME280;27971;53.902;9.118;2022-12-07T02:47:21;101223.0;;;17.74;24.54
41383;BME280;27971;53.902;9.118;2022-12-07T02:49:24;101224.0;;;17.56;24.57
41383;BME280;27971;53.902;9.118;2022-12-07T02:51:30;101224.0;;;17.26;24.78
41383;BME280;27971;53.902;9.118;2022-12-07T02:53:30;101224.0;;;17.63;24.54
41383;BME280;27971;53.902;9.118;2022-12-07T02:55:37;101223.0;;;17.64;24.5
41383;BME280;27971;53.902;9.118;2022-12-07T02:57:47;101222.0;;;17.76;24.4
41383;BME280;27971;53.902;9.118;2022-12-07T02:59:46;101222.0;;;17.88;24.35
41383;BME280;27971;53.902;9.118;2022-12-07T03:01:46;101220.0;;;17.68;24.6
41383;BME280;27971;53.902;9.118;2022-12-07T03:03:48;101221.0;;;17.25;24.87
41383;BME280;27971;53.902;9.118;2022-12-07T03:06:03;101220.0;;;17.19;24.85
41383;BME280;27971;53.902;9.118;2022-12-07T03:07:54;101217.0;;;17.73;24.58
41383;BME280;27971;53.902;9.118;2022-12-07T03:09:57;101217.0;;;17.63;24.55
41383;BME280;27971;53.902;9.118;2022-12-07T03:12:01;101218.0;;;17.73;24.54
41383;BME280;27971;53.902;9.118;2022-12-07T03:14:01;101217.0;;;17.94;24.41
41383;BME280;27971;53.902;9.118;2022-12-07T03:16:04;101213.0;;;17.8;24.34
41383;BME280;27971;53.902;9.118;2022-12-07T03:18:03;101210.0;;;17.45;24.58
41383;BME280;27971;53.902;9.118;2022-12-07T03:20:09;101209.0;;;17.25;24.74
41383;BME280;27971;53.902;9.118;2022-12-07T03:22:10;101209.0;;;17.66;24.55
41383;BME280;27971;53.902;9.118;2022-12-07T03:24:14;101208.0;;;18.51;24.61
41383;BME280;27971;53.902;9.118;2022-12-07T03:26:15;101208.0;;;21.31;24.96
41383;BME280;27971;53.902;9.118;2022-12-07T03:28:19;101210.0;;;21.05;25.88
41383;BME280;27971;53.902;9.118;2022-12-07T03:30:22;101212.0;;;20.67;26.68
41383;BME280;27971;53.902;9.118;2022-12-07T03:32:26;101215.0;;;20.41;27.14
41383;BME280;27971;53.902;9.118;2022-12-07T03:34:29;101213.0;;;20.19;27.53
41383;BME280;27971;53.902;9.118;2022-12-07T03:36:34;101209.0;;;20.14;27.81
41383;BME280;27971;53.902;9.118;2022-12-07T03:38:37;101205.0;;;20.24;27.93
41383;BME280;27971;53.902;9.118;2022-12-07T03:40:40;101203.0;;;20.26;27.95
41383;BME280;27971;53.902;9.118;2022-12-07T03:42:38;101203.0;;;20.32;27.95
41383;BME280;27971;53.902;9.118;2022-12-07T03:44:41;101204.0;;;20.32;27.9
41383;BME280;27971;53.902;9.118;2022-12-07T03:46:49;101208.0;;;20.01;28.15
41383;BME280;27971;53.902;9.118;2022-12-07T03:48:55;101211.0;;;20.09;28.14
41383;BME280;27971;53.902;9.118;2022-12-07T03:50:53;101214.0;;;19.94;28.3
41383;BME280;27971;53.902;9.118;2022-12-07T03:52:55;101213.0;;;18.34;28.36
41383;BME280;27971;53.902;9.118;2022-12-07T03:54:59;101210.0;;;16.04;27.78
41383;BME280;27971;53.902;9.118;2022-12-07T03:57:00;101204.0;;;16.45;26.71
41383;BME280;27971;53.902;9.118;2022-12-07T03:59:02;101202.0;;;16.8;26.02
41383;BME280;27971;53.902;9.118;2022-12-07T04:01:05;101199.0;;;16.72;25.71
41383;BME280;27971;53.902;9.118;2022-12-07T04:03:08;101198.0;;;16.97;25.46
41383;BME280;27971;53.902;9.118;2022-12-07T04:05:11;101199.0;;;17.15;25.26
41383;BME280;27971;53.902;9.118;2022-12-07T04:07:14;101200.0;;;17.24;25.06
41383;BME280;27971;53.902;9.118;2022-12-07T04:09:17;101198.0;;;17.5;24.8
41383;BME280;27971;53.902;9.118;2022-12-07T04:11:20;101197.0;;;18.23;24.17
41383;BME280;27971;53.902;9.118;2022-12-07T04:13:23;101199.0;;;18.07;24.06
41383;BME280;27971;53.902;9.118;2022-12-07T04:15:26;101202.0;;;18.0;24.1
41383;BME280;27971;53.902;9.118;2022-12-07T04:17:29;101200.0;;;18.35;23.84
41383;BME280;27971;53.902;9.118;2022-12-07T04:19:33;101201.0;;;18.68;23.52
41383;BME280;27971;53.902;9.118;2022-12-07T04:21:35;101198.0;;;18.91;23.33
41383;BME280;27971;53.902;9.118;2022-12-07T04:23:38;101195.0;;;18.41;23.64
41383;BME280;27971;53.902;9.118;2022-12-07T04:25:41;101195.0;;;18.3;23.69
41383;BME280;27971;53.902;9.118;2022-12-07T04:27:44;101194.0;;;18.32;23.69
41383;BME280;27971;53.902;9.118;2022-12-07T04:29:47;101193.0;;;18.23;23.69
41383;BME280;27971;53.902;9.118;2022-12-07T04:31:51;101189.0;;;18.24;23.74
41383;BME280;27971;53.902;9.118;2022-12-07T04:33:52;101188.0;;;17.73;24.07
41383;BME280;27971;53.902;9.118;2022-12-07T04:35:55;101185.0;;;17.77;24.06
41383;BME280;27971;53.902;9.118;2022-12-07T04:37:58;101183.0;;;17.63;24.23
41383;BME280;27971;53.902;9.118;2022-12-07T04:40:01;101185.0;;;17.35;24.38
41383;BME280;27971;53.902;9.118;2022-12-07T04:42:04;101186.0;;;17.74;24.11
41383;BME280;27971;53.902;9.118;2022-12-07T04:44:08;101187.0;;;17.41;24.35
41383;BME280;27971;53.902;9.118;2022-12-07T04:46:10;101186.0;;;17.57;24.28
41383;BME280;27971;53.902;9.118;2022-12-07T04:48:14;101186.0;;;17.47;24.33
41383;BME280;27971;53.902;9.118;2022-12-07T04:50:17;101187.0;;;17.51;24.3
41383;BME280;27971;53.902;9.118;2022-12-07T04:52:20;101188.0;;;17.55;24.24
41383;BME280;27971;53.902;9.118;2022-12-07T04:54:23;101189.0;;;17.46;24.32
41383;BME280;27971;53.902;9.118;2022-12-07T04:56:26;101188.0;;;17.27;24.45
41383;BME280;27971;53.902;9.118;2022-12-07T04:58:29;101187.0;;;17.37;24.38
41383;BME280;27971;53.902;9.118;2022-12-07T05:00:32;101188.0;;;17.64;24.12
41383;BME280;27971;53.902;9.118;2022-12-07T05:02:35;101188.0;;;18.34;23.64
41383;BME280;27971;53.902;9.118;2022-12-07T05:04:38;101188.0;;;17.91;23.89
41383;BME280;27971;53.902;9.118;2022-12-07T05:06:41;101186.0;;;17.94;23.9
41383;BME280;27971;53.902;9.118;2022-12-07T05:08:44;101184.0;;;18.13;23.75
41383;BME280;27971;53.902;9.118;2022-12-07T05:10:49;101182.0;;;18.13;23.74
41383;BME280;27971;53.902;9.118;2022-12-07T05:12:51;101177.0;;;18.19;23.74
41383;BME280;27971;53.902;9.118;2022-12-07T05:14:54;101174.0;;;17.92;23.98
41383;BME280;27971;53.902;9.118;2022-12-07T05:16:57;101171.0;;;17.7;24.31
41383;BME280;27971;53.902;9.118;2022-12-07T05:18:59;101166.0;;;17.53;24.39
41383;BME280;27971;53.902;9.118;2022-12-07T05:21:03;101166.0;;;17.64;24.35
41383;BME280;27971;53.902;9.118;2022-12-07T05:23:06;101165.0;;;18.32;23.95
41383;BME280;27971;53.902;9.118;2022-12-07T05:25:09;101161.0;;;18.09;24.03
41383;BME280;27971;53.902;9.118;2022-12-07T05:27:13;101160.0;;;17.54;24.47
41383;BME280;27971;53.902;9.118;2022-12-07T05:29:17;101158.0;;;17.41;24.63
41383;BME280;27971;53.902;9.118;2022-12-07T05:31:19;101163.0;;;17.52;24.58
41383;BME280;27971;53.902;9.118;2022-12-07T05:33:22;101164.0;;;17.31;24.69
41383;BME280;27971;53.902;9.118;2022-12-07T05:35:25;101162.0;;;17.71;24.47
41383;BME280;27971;53.902;9.118;2022-12-07T05:37:27;101161.0;;;17.68;24.62
41383;BME280;27971;53.902;9.118;2022-12-07T05:39:29;101163.0;;;21.31;24.76
41383;BME280;27971;53.902;9.118;2022-12-07T05:41:31;101165.0;;;21.36;25.65
41383;BME280;27971;53.902;9.118;2022-12-07T05:43:34;101164.0;;;20.96;26.41
41383;BME280;27971;53.902;9.118;2022-12-07T05:45:36;101167.0;;;20.84;26.85
41383;BME280;27971;53.902;9.118;2022-12-07T05:47:39;101169.0;;;20.73;27.09
41383;BME280;27971;53.902;9.118;2022-12-07T05:49:41;101170.0;;;20.35;27.57
41383;BME280;27971;53.902;9.118;2022-12-07T05:51:44;101170.0;;;20.39;27.87
41383;BME280;27971;53.902;9.118;2022-12-07T05:53:46;101168.0;;;20.56;27.68
41383;BME280;27971;53.902;9.118;2022-12-07T05:55:48;101167.0;;;20.92;27.65
41383;BME280;27971;53.902;9.118;2022-12-07T05:57:52;101169.0;;;20.54;27.75
41383;BME280;27971;53.902;9.118;2022-12-07T05:59:54;101170.0;;;19.7;28.42
41383;BME280;27971;53.902;9.118;2022-12-07T06:01:58;101163.0;;;20.42;27.92
41383;BME280;27971;53.902;9.118;2022-12-07T06:03:59;101160.0;;;20.3;27.71
41383;BME280;27971;53.902;9.118;2022-12-07T06:06:03;101159.0;;;20.0;28.04
41383;BME280;27971;53.902;9.118;2022-12-07T06:08:05;101163.0;;;19.37;28.49
41383;BME280;27971;53.902;9.118;2022-12-07T06:10:08;101165.0;;;18.92;28.93
41383;BME280;27971;53.902;9.118;2022-12-07T06:12:12;101161.0;;;19.32;28.44
41383;BME280;27971;53.902;9.118;2022-12-07T06:14:13;101158.0;;;19.42;28.19
41383;BME280;27971;53.902;9.118;2022-12-07T06:16:16;101160.0;;;20.17;27.52
41383;BME280;27971;53.902;9.118;2022-12-07T06:18:18;101160.0;;;20.03;27.16
41383;BME280;27971;53.902;9.118;2022-12-07T06:20:20;101161.0;;;19.62;27.51
41383;BME280;27971;53.902;9.118;2022-12-07T06:22:23;101163.0;;;19.98;27.09
41383;BME280;27971;53.902;9.118;2022-12-07T06:24:25;101162.0;;;20.39;26.44
41383;BME280;27971;53.902;9.118;2022-12-07T06:26:28;101162.0;;;20.53;26.05
41383;BME280;27971;53.902;9.118;2022-12-07T06:28:30;101162.0;;;20.78;25.89
41383;BME280;27971;53.902;9.118;2022-12-07T06:30:34;101159.0;;;21.57;25.08
41383;BME280;27971;53.902;9.118;2022-12-07T06:32:37;101161.0;;;22.83;23.9
41383;BME280;27971;53.902;9.118;2022-12-07T06:34:38;101161.0;;;23.14;23.15
41383;BME280;27971;53.902;9.118;2022-12-07T06:36:41;101166.0;;;23.02;23.1
41383;BME280;27971;53.902;9.118;2022-12-07T06:38:43;101165.0;;;23.08;22.96
41383;BME280;27971;53.902;9.118;2022-12-07T06:40:45;101164.0;;;22.46;23.18
41383;BME280;27971;53.902;9.118;2022-12-07T06:42:48;101165.0;;;22.73;22.95
41383;BME280;27971;53.902;9.118;2022-12-07T06:44:50;101168.0;;;23.02;22.63
41383;BME280;27971;53.902;9.118;2022-12-07T06:46:52;101170.0;;;23.05;22.62
41383;BME280;27971;53.902;9.118;2022-12-07T06:48:54;101170.0;;;23.0;22.64
41383;BME280;27971;53.902;9.118;2022-12-07T06:50:57;101171.0;;;22.97;22.71
41383;BME280;27971;53.902;9.118;2022-12-07T06:53:00;101171.0;;;23.06;22.51
41383;BME280;27971;53.902;9.118;2022-12-07T06:55:02;101169.0;;;23.25;22.44
41383;BME280;27971;53.902;9.118;2022-12-07T06:57:05;101166.0;;;23.43;22.35
41383;BME280;27971;53.902;9.118;2022-12-07T06:59:07;101165.0;;;23.83;22.08
41383;BME280;27971;53.902;9.118;2022-12-07T07:01:11;101163.0;;;23.96;22.01
41383;BME280;27971;53.902;9.118;2022-12-07T07:03:12;101164.0;;;23.23;22.59
41383;BME280;27971;53.902;9.118;2022-12-07T07:05:16;101165.0;;;22.77;22.91
41383;BME280;27971;53.902;9.118;2022-12-07T07:07:19;101165.0;;;23.47;22.58
41383;BME280;27971;53.902;9.118;2022-12-07T07:09:21;101168.0;;;22.89;23.09
41383;BME280;27971;53.902;9.118;2022-12-07T07:11:23;101165.0;;;23.19;22.91
41383;BME280;27971;53.902;9.118;2022-12-07T07:13:26;101163.0;;;23.48;22.75
41383;BME280;27971;53.902;9.118;2022-12-07T07:15:28;101159.0;;;24.17;22.3
41383;BME280;27971;53.902;9.118;2022-12-07T07:17:31;101157.0;;;24.27;22.37
41383;BME280;27971;53.902;9.118;2022-12-07T07:19:33;101157.0;;;23.81;22.68
41383;BME280;27971;53.902;9.118;2022-12-07T07:21:36;101157.0;;;23.76;22.62
41383;BME280;27971;53.902;9.118;2022-12-07T07:23:37;101158.0;;;23.69;22.7
41383;BME280;27971;53.902;9.118;2022-12-07T07:25:40;101160.0;;;24.39;22.19
41383;BME280;27971;53.902;9.118;2022-12-07T07:27:42;101163.0;;;23.83;22.57
41383;BME280;27971;53.902;9.118;2022-12-07T07:29:44;101164.0;;;24.24;22.28
41383;BME280;27971;53.902;9.118;2022-12-07T07:31:46;101167.0;;;24.42;22.11
41383;BME280;27971;53.902;9.118;2022-12-07T07:33:49;101171.0;;;24.26;22.18
41383;BME280;27971;53.902;9.118;2022-12-07T07:35:51;101174.0;;;24.16;22.24
41383;BME280;27971;53.902;9.118;2022-12-07T07:37:53;101176.0;;;24.34;22.08
41383;BME280;27971;53.902;9.118;2022-12-07T07:39:55;101177.0;;;24.53;21.94
41383;BME280;27971;53.902;9.118;2022-12-07T07:41:59;101177.0;;;24.7;21.77
41383;BME280;27971;53.902;9.118;2022-12-07T07:44:01;101176.0;;;24.42;21.9
41383;BME280;27971;53.902;9.118;2022-12-07T07:46:04;101175.0;;;24.54;21.83
41383;BME280;27971;53.902;9.118;2022-12-07T07:48:06;101174.0;;;24.23;22.1
41383;BME280;27971;53.902;9.118;2022-12-07T07:50:09;101177.0;;;24.56;21.87
41383;BME280;27971;53.902;9.118;2022-12-07T07:52:12;101180.0;;;24.31;21.94
41383;BME280;27971;53.902;9.118;2022-12-07T07:54:14;101185.0;;;24.59;21.75
41383;BME280;27971;53.902;9.118;2022-12-07T07:56:16;101190.0;;;24.52;21.84
41383;BME280;27971;53.902;9.118;2022-12-07T07:58:19;101189.0;;;24.48;21.77
41383;BME280;27971;53.902;9.118;2022-12-07T08:00:22;101189.0;;;24.22;21.98
41383;BME280;27971;53.902;9.118;2022-12-07T08:02:23;101192.0;;;24.51;21.76
41383;BME280;27971;53.902;9.118;2022-12-07T08:04:26;101190.0;;;24.39;21.93
41383;BME280;27971;53.902;9.118;2022-12-07T08:06:29;101187.0;;;24.14;22.08
41383;BME280;27971;53.902;9.118;2022-12-07T08:08:31;101185.0;;;24.26;22.02
41383;BME280;27971;53.902;9.118;2022-12-07T08:10:34;101181.0;;;24.24;21.96
41383;BME280;27971;53.902;9.118;2022-12-07T08:12:37;101178.0;;;24.09;22.1
41383;BME280;27971;53.902;9.118;2022-12-07T08:14:39;101178.0;;;24.59;21.78
41383;BME280;27971;53.902;9.118;2022-12-07T08:16:42;101177.0;;;24.46;21.8
41383;BME280;27971;53.902;9.118;2022-12-07T08:18:44;101179.0;;;23.69;22.34
41383;BME280;27971;53.902;9.118;2022-12-07T08:20:46;101179.0;;;23.91;22.25
41383;BME280;27971;53.902;9.118;2022-12-07T08:22:49;101180.0;;;23.99;22.17
41383;BME280;27971;53.902;9.118;2022-12-07T08:24:51;101181.0;;;24.08;22.11
41383;BME280;27971;53.902;9.118;2022-12-07T08:26:53;101182.0;;;24.21;22.0
41383;BME280;27971;53.902;9.118;2022-12-07T08:28:56;101182.0;;;23.92;22.17
41383;BME280;27971;53.902;9.118;2022-12-07T08:30:59;101182.0;;;24.32;21.86
41383;BME280;27971;53.902;9.118;2022-12-07T08:33:02;101181.0;;;24.27;21.88
41383;BME280;27971;53.902;9.118;2022-12-07T08:35:05;101180.0;;;24.16;21.93
41383;BME280;27971;53.902;9.118;2022-12-07T08:37:08;101178.0;;;24.18;21.94
41383;BME280;27971;53.902;9.118;2022-12-07T08:39:11;101179.0;;;23.65;22.3
41383;BME280;27971;53.902;9.118;2022-12-07T08:41:13;101181.0;;;24.11;22.08
41383;BME280;27971;53.902;9.118;2022-12-07T08:43:17;101180.0;;;23.88;22.17
41383;BME280;27971;53.902;9.118;2022-12-07T08:45:20;101180.0;;;23.36;22.52
41383;BME280;27971;53.902;9.118;2022-12-07T08:47:23;101178.0;;;24.41;21.95
41383;BME280;27971;53.902;9.118;2022-12-07T08:49:27;101179.0;;;24.56;21.76
41383;BME280;27971;53.902;9.118;2022-12-07T08:51:28;101181.0;;;24.63;21.74
41383;BME280;27971;53.902;9.118;2022-12-07T08:53:31;101184.0;;;25.23;21.34
41383;BME280;27971;53.902;9.118;2022-12-07T08:55:34;101188.0;;;24.71;21.65
41383;BME280;27971;53.902;9.118;2022-12-07T08:57:36;101188.0;;;25.05;21.37
41383;BME280;27971;53.902;9.118;2022-12-07T08:59:38;101189.0;;;24.78;21.56
41383;BME280;27971;53.902;9.118;2022-12-07T09:01:40;101188.0;;;25.09;21.38
41383;BME280;27971;53.902;9.118;2022-12-07T09:03:42;101194.0;;;24.61;21.71
41383;BME280;27971;53.902;9.118;2022-12-07T09:05:45;101196.0;;;24.47;21.74
41383;BME280;27971;53.902;9.118;2022-12-07T09:07:49;101196.0;;;24.47;21.72
41383;BME280;27971;53.902;9.118;2022-12-07T09:09:50;101199.0;;;24.46;21.79
41383;BME280;27971;53.902;9.118;2022-12-07T09:11:52;101209.0;;;25.42;21.13
41383;BME280;27971;53.902;9.118;2022-12-07T09:13:56;101218.0;;;25.68;21.0
41383;BME280;27971;53.902;9.118;2022-12-07T09:15:58;101231.0;;;25.36;21.15
41383;BME280;27971;53.902;9.118;2022-12-07T09:18:00;101230.0;;;25.49;21.15
41383;BME280;27971;53.902;9.118;2022-12-07T09:20:03;101224.0;;;23.91;22.02
41383;BME280;27971;53.902;9.118;2022-12-07T09:22:06;101221.0;;;24.18;21.91
41383;BME280;27971;53.902;9.118;2022-12-07T09:24:08;101208.0;;;24.27;21.84
41383;BME280;27971;53.902;9.118;2022-12-07T09:26:10;101201.0;;;24.33;21.86
41383;BME280;27971;53.902;9.118;2022-12-07T09:28:13;101205.0;;;24.3;21.96
41383;BME280;27971;53.902;9.118;2022-12-07T09:30:15;101206.0;;;23.33;22.65
41383;BME280;27971;53.902;9.118;2022-12-07T09:32:17;101202.0;;;23.7;22.52
41383;BME280;27971;53.902;9.118;2022-12-07T09:34:20;101202.0;;;23.38;22.8
41383;BME280;27971;53.902;9.118;2022-12-07T09:36:22;101202.0;;;22.79;23.21
41383;BME280;27971;53.902;9.118;2022-12-07T09:38:25;101201.0;;;23.53;22.64
41383;BME280;27971;53.902;9.118;2022-12-07T09:40:28;101197.0;;;24.35;22.07
41383;BME280;27971;53.902;9.118;2022-12-07T09:42:34;101200.0;;;23.37;22.74
41383;BME280;27971;53.902;9.118;2022-12-07T09:44:33;101199.0;;;23.47;22.82
41383;BME280;27971;53.902;9.118;2022-12-07T09:46:36;101201.0;;;22.98;23.17
41383;BME280;27971;53.902;9.118;2022-12-07T09:48:38;101201.0;;;22.85;23.23
41383;BME280;27971;53.902;9.118;2022-12-07T09:50:41;101201.0;;;23.18;22.98
41383;BME280;27971;53.902;9.118;2022-12-07T09:52:45;101203.0;;;22.65;23.33
41383;BME280;27971;53.902;9.118;2022-12-07T09:54:48;101201.0;;;21.9;23.89
41383;BME280;27971;53.902;9.118;2022-12-07T09:56:49;101201.0;;;23.01;23.04
41383;BME280;27971;53.902;9.118;2022-12-07T09:58:58;101200.0;;;23.79;22.48
41383;BME280;27971;53.902;9.118;2022-12-07T10:00:59;101200.0;;;23.68;22.58
41383;BME280;27971;53.902;9.118;2022-12-07T10:03:01;101201.0;;;22.97;23.07
41383;BME280;27971;53.902;9.118;2022-12-07T10:05:05;101198.0;;;23.38;22.72
41383;BME280;27971;53.902;9.118;2022-12-07T10:07:05;101198.0;;;23.93;22.37
41383;BME280;27971;53.902;9.118;2022-12-07T10:09:10;101196.0;;;24.51;22.06
41383;BME280;27971;53.902;9.118;2022-12-07T10:11:11;101194.0;;;24.89;21.87
41383;BME280;27971;53.902;9.118;2022-12-07T10:13:15;101195.0;;;24.78;21.85
41383;BME280;27971;53.902;9.118;2022-12-07T10:15:17;101194.0;;;24.39;22.03
41383;BME280;27971;53.902;9.118;2022-12-07T10:17:37;101192.0;;;24.42;21.97
41383;BME280;27971;53.902;9.118;2022-12-07T10:19:25;101190.0;;;25.03;21.69
41383;BME280;27971;53.902;9.118;2022-12-07T10:21:26;101189.0;;;24.25;22.1
41383;BME280;27971;53.902;9.118;2022-12-07T10:23:27;101187.0;;;24.19;22.07
41383;BME280;27971;53.902;9.118;2022-12-07T10:25:33;101186.0;;;24.53;21.82
41383;BME280;27971;53.902;9.118;2022-12-07T10:27:33;101186.0;;;24.47;21.8
41383;BME280;27971;53.902;9.118;2022-12-07T10:29:37;101185.0;;;23.71;22.25
41383;BME280;27971;53.902;9.118;2022-12-07T10:31:39;101188.0;;;23.18;22.63
41383;BME280;27971;53.902;9.118;2022-12-07T10:33:50;101186.0;;;23.99;22.09
41383;BME280;27971;53.902;9.118;2022-12-07T10:35:43;101186.0;;;24.29;21.89
41383;BME280;27971;53.902;9.118;2022-12-07T10:37:45;101186.0;;;24.32;21.83
41383;BME280;27971;53.902;9.118;2022-12-07T10:39:50;101186.0;;;23.87;22.08
41383;BME280;27971;53.902;9.118;2022-12-07T10:41:56;101186.0;;;23.07;22.66
41383;BME280;27971;53.902;9.118;2022-12-07T10:43:57;101184.0;;;23.41;22.5
41383;BME280;27971;53.902;9.118;2022-12-07T10:46:13;101182.0;;;23.7;22.25
41383;BME280;27971;53.902;9.118;2022-12-07T10:48:05;101183.0;;;23.56;22.46
41383;BME280;27971;53.902;9.118;2022-12-07T10:50:23;101183.0;;;23.36;22.52
41383;BME280;27971;53.902;9.118;2022-12-07T10:52:15;101182.0;;;23.66;22.41
41383;BME280;27971;53.902;9.118;2022-12-07T10:54:13;101179.0;;;24.13;22.01
41383;BME280;27971;53.902;9.118;2022-12-07T10:56:25;101178.0;;;24.06;22.04